sensor_id;sensor_type;location;lat;lon;timestamp;pressure;altitude;pressure_sealevel;temperature;humidity
12215;BME280;6170;42.206;24.142;2023-05-19T00:01:44;98929.03;;;14.26;82.15
12215;BME280;6170;42.206;24.142;2023-05-19T00:04:12;98936.81;;;14.41;81.38
12215;BME280;6170;42.206;24.142;2023-05-19T00:06:40;98932.94;;;14.30;81.33
12215;BME280;6170;42.206;24.142;2023-05-19T00:09:10;98887.72;;;14.14;81.29
12215;BME280;6170;42.206;24.142;2023-05-19T00:11:38;98888.28;;;14.16;81.13
12215;BME280;6170;42.206;24.142;2023-05-19T00:14:07;98891.38;;;14.20;80.92
12215;BME280;6170;42.206;24.142;2023-05-19T00:16:36;98874.16;;;14.03;81.04
12215;BME280;6170;42.206;24.142;2023-05-19T00:19:06;98896.00;;;14.13;81.48
12215;BME280;6170;42.206;24.142;2023-05-19T00:21:34;98929.19;;;14.31;81.97
12215;BME280;6170;42.206;24.142;2023-05-19T00:24:03;98881.84;;;13.99;81.65
12215;BME280;6170;42.206;24.142;2023-05-19T00:26:30;98889.31;;;13.97;81.96
12215;BME280;6170;42.206;24.142;2023-05-19T00:28:57;98929.19;;;14.38;81.79
12215;BME280;6170;42.206;24.142;2023-05-19T00:31:24;98890.84;;;14.11;81.99
12215;BME280;6170;42.206;24.142;2023-05-19T00:33:52;98930.44;;;14.35;81.58
12215;BME280;6170;42.206;24.142;2023-05-19T00:36:19;98875.69;;;13.92;82.38
12215;BME280;6170;42.206;24.142;2023-05-19T00:38:46;98927.25;;;14.20;82.22
12215;BME280;6170;42.206;24.142;2023-05-19T00:41:13;98878.44;;;13.85;82.10
12215;BME280;6170;42.206;24.142;2023-05-19T00:43:40;98880.88;;;13.93;81.69
12215;BME280;6170;42.206;24.142;2023-05-19T00:46:07;98881.41;;;14.02;81.56
12215;BME280;6170;42.206;24.142;2023-05-19T00:48:35;98884.03;;;14.09;81.44
12215;BME280;6170;42.206;24.142;2023-05-19T00:51:04;98880.50;;;14.08;81.12
12215;BME280;6170;42.206;24.142;2023-05-19T00:53:31;98870.47;;;13.97;80.97
12215;BME280;6170;42.206;24.142;2023-05-19T00:55:59;98873.75;;;13.99;80.83
12215;BME280;6170;42.206;24.142;2023-05-19T00:58:27;98913.47;;;14.28;81.23
12215;BME280;6170;42.206;24.142;2023-05-19T01:00:57;98922.06;;;14.19;80.86
12215;BME280;6170;42.206;24.142;2023-05-19T01:03:29;98913.66;;;14.09;81.52
12215;BME280;6170;42.206;24.142;2023-05-19T01:05:56;98880.34;;;14.03;80.86
12215;BME280;6170;42.206;24.142;2023-05-19T01:08:29;98881.69;;;14.12;80.93
12215;BME280;6170;42.206;24.142;2023-05-19T01:10:57;98877.44;;;14.05;80.87
12215;BME280;6170;42.206;24.142;2023-05-19T01:13:24;98874.53;;;14.06;80.47
12215;BME280;6170;42.206;24.142;2023-05-19T01:16:04;98874.19;;;13.96;81.09
12215;BME280;6170;42.206;24.142;2023-05-19T01:18:39;98875.34;;;14.07;80.60
12215;BME280;6170;42.206;24.142;2023-05-19T01:21:29;98874.38;;;14.01;80.62
12215;BME280;6170;42.206;24.142;2023-05-19T01:24:12;98849.63;;;13.86;80.85
12215;BME280;6170;42.206;24.142;2023-05-19T01:27:08;98877.59;;;14.10;80.60
12215;BME280;6170;42.206;24.142;2023-05-19T01:29:41;98912.41;;;14.29;81.28
12215;BME280;6170;42.206;24.142;2023-05-19T01:32:22;98896.81;;;14.13;80.82
12215;BME280;6170;42.206;24.142;2023-05-19T01:34:50;98911.16;;;14.32;80.77
12215;BME280;6170;42.206;24.142;2023-05-19T01:37:20;98877.94;;;13.95;81.68
12215;BME280;6170;42.206;24.142;2023-05-19T01:39:47;98915.19;;;14.23;81.64
12215;BME280;6170;42.206;24.142;2023-05-19T01:42:16;98913.00;;;14.13;82.10
12215;BME280;6170;42.206;24.142;2023-05-19T01:44:44;98913.31;;;14.23;81.72
12215;BME280;6170;42.206;24.142;2023-05-19T01:47:12;98866.66;;;14.05;81.56
12215;BME280;6170;42.206;24.142;2023-05-19T01:49:41;98869.03;;;13.94;81.99
12215;BME280;6170;42.206;24.142;2023-05-19T01:52:08;98862.84;;;14.12;81.02
12215;BME280;6170;42.206;24.142;2023-05-19T01:54:35;98906.28;;;14.22;81.75
12215;BME280;6170;42.206;24.142;2023-05-19T01:57:06;98866.94;;;13.97;81.41
12215;BME280;6170;42.206;24.142;2023-05-19T01:59:41;98873.69;;;14.06;81.87
12215;BME280;6170;42.206;24.142;2023-05-19T02:02:18;98881.56;;;14.07;81.75
12215;BME280;6170;42.206;24.142;2023-05-19T02:04:55;98904.56;;;14.28;81.16
12215;BME280;6170;42.206;24.142;2023-05-19T02:07:30;98858.66;;;13.98;81.23
12215;BME280;6170;42.206;24.142;2023-05-19T02:10:04;98913.53;;;14.22;81.75
12215;BME280;6170;42.206;24.142;2023-05-19T02:12:34;98854.16;;;13.92;81.29
12215;BME280;6170;42.206;24.142;2023-05-19T02:15:05;98874.81;;;14.16;81.01
12215;BME280;6170;42.206;24.142;2023-05-19T02:17:35;98863.44;;;13.96;80.76
12215;BME280;6170;42.206;24.142;2023-05-19T02:20:06;98925.41;;;14.39;79.83
12215;BME280;6170;42.206;24.142;2023-05-19T02:22:34;98865.16;;;14.09;80.21
12215;BME280;6170;42.206;24.142;2023-05-19T02:25:01;98876.31;;;14.12;80.12
12215;BME280;6170;42.206;24.142;2023-05-19T02:27:28;98878.19;;;14.12;79.83
12215;BME280;6170;42.206;24.142;2023-05-19T02:29:55;98871.72;;;13.94;80.48
12215;BME280;6170;42.206;24.142;2023-05-19T02:32:22;98919.44;;;14.12;81.45
12215;BME280;6170;42.206;24.142;2023-05-19T02:34:49;98918.00;;;14.10;81.73
12215;BME280;6170;42.206;24.142;2023-05-19T02:37:19;98891.84;;;13.92;81.24
12215;BME280;6170;42.206;24.142;2023-05-19T02:39:48;98889.31;;;13.97;80.74
12215;BME280;6170;42.206;24.142;2023-05-19T02:42:15;98895.13;;;13.94;80.75
12215;BME280;6170;42.206;24.142;2023-05-19T02:44:43;98892.41;;;14.01;80.49
12215;BME280;6170;42.206;24.142;2023-05-19T02:47:09;98928.66;;;14.23;80.25
12215;BME280;6170;42.206;24.142;2023-05-19T02:49:36;98879.81;;;13.94;80.20
12215;BME280;6170;42.206;24.142;2023-05-19T02:52:04;98888.97;;;14.12;79.95
12215;BME280;6170;42.206;24.142;2023-05-19T02:54:33;98887.75;;;14.08;79.96
12215;BME280;6170;42.206;24.142;2023-05-19T02:57:00;98930.97;;;14.44;79.30
12215;BME280;6170;42.206;24.142;2023-05-19T02:59:27;98895.72;;;14.21;79.06
12215;BME280;6170;42.206;24.142;2023-05-19T03:01:55;98896.94;;;14.25;79.07
12215;BME280;6170;42.206;24.142;2023-05-19T03:04:22;98895.94;;;14.19;78.97
12215;BME280;6170;42.206;24.142;2023-05-19T03:06:49;98894.66;;;14.22;78.73
12215;BME280;6170;42.206;24.142;2023-05-19T03:09:16;98892.72;;;14.11;78.49
12215;BME280;6170;42.206;24.142;2023-05-19T03:11:44;98930.59;;;14.41;78.38
12215;BME280;6170;42.206;24.142;2023-05-19T03:14:11;98903.25;;;14.12;79.37
12215;BME280;6170;42.206;24.142;2023-05-19T03:16:38;98906.88;;;14.24;78.78
12215;BME280;6170;42.206;24.142;2023-05-19T03:19:06;98907.94;;;14.23;78.92
12215;BME280;6170;42.206;24.142;2023-05-19T03:21:33;98908.41;;;14.38;78.69
12215;BME280;6170;42.206;24.142;2023-05-19T03:24:01;98941.41;;;14.59;77.73
12215;BME280;6170;42.206;24.142;2023-05-19T03:26:28;98919.81;;;14.41;78.16
12215;BME280;6170;42.206;24.142;2023-05-19T03:28:56;98912.75;;;14.39;78.08
12215;BME280;6170;42.206;24.142;2023-05-19T03:31:23;98905.44;;;14.47;78.13
12215;BME280;6170;42.206;24.142;2023-05-19T03:33:51;98907.75;;;14.43;77.49
12215;BME280;6170;42.206;24.142;2023-05-19T03:36:17;98904.25;;;14.43;77.93
12215;BME280;6170;42.206;24.142;2023-05-19T03:38:46;98909.03;;;14.41;77.27
12215;BME280;6170;42.206;24.142;2023-05-19T03:41:13;98907.84;;;14.55;77.07
12215;BME280;6170;42.206;24.142;2023-05-19T03:43:40;98941.97;;;14.79;77.27
12215;BME280;6170;42.206;24.142;2023-05-19T03:46:08;98916.50;;;14.75;77.15
12215;BME280;6170;42.206;24.142;2023-05-19T03:48:35;98918.84;;;14.71;76.85
12215;BME280;6170;42.206;24.142;2023-05-19T03:51:02;98916.81;;;14.49;77.22
12215;BME280;6170;42.206;24.142;2023-05-19T03:53:29;98910.00;;;14.64;77.25
12215;BME280;6170;42.206;24.142;2023-05-19T03:55:56;98907.53;;;14.63;76.98
12215;BME280;6170;42.206;24.142;2023-05-19T03:58:23;98915.63;;;14.81;76.64
12215;BME280;6170;42.206;24.142;2023-05-19T04:00:51;98918.63;;;14.91;76.04
12215;BME280;6170;42.206;24.142;2023-05-19T04:03:19;98915.38;;;14.82;77.17
12215;BME280;6170;42.206;24.142;2023-05-19T04:05:46;98906.47;;;14.82;76.39
12215;BME280;6170;42.206;24.142;2023-05-19T04:08:13;98922.34;;;14.90;77.07
12215;BME280;6170;42.206;24.142;2023-05-19T04:10:40;98926.28;;;15.06;76.41
12215;BME280;6170;42.206;24.142;2023-05-19T04:13:07;98932.13;;;15.21;76.45
12215;BME280;6170;42.206;24.142;2023-05-19T04:15:34;98935.72;;;15.15;76.11
12215;BME280;6170;42.206;24.142;2023-05-19T04:18:00;98930.44;;;15.38;75.97
12215;BME280;6170;42.206;24.142;2023-05-19T04:20:29;98927.69;;;15.56;75.28
12215;BME280;6170;42.206;24.142;2023-05-19T04:22:56;98968.31;;;16.03;75.06
12215;BME280;6170;42.206;24.142;2023-05-19T04:25:22;98922.34;;;15.80;75.02
12215;BME280;6170;42.206;24.142;2023-05-19T04:27:49;98927.06;;;15.96;74.77
12215;BME280;6170;42.206;24.142;2023-05-19T04:30:17;98931.56;;;16.02;74.79
12215;BME280;6170;42.206;24.142;2023-05-19T04:32:46;98959.06;;;16.45;74.29
12215;BME280;6170;42.206;24.142;2023-05-19T04:35:14;98934.03;;;16.27;73.46
12215;BME280;6170;42.206;24.142;2023-05-19T04:37:45;98923.78;;;16.52;73.81
12215;BME280;6170;42.206;24.142;2023-05-19T04:40:13;98933.75;;;16.86;73.61
12215;BME280;6170;42.206;24.142;2023-05-19T04:42:40;98936.91;;;16.95;71.95
12215;BME280;6170;42.206;24.142;2023-05-19T04:45:10;98945.53;;;17.20;71.55
12215;BME280;6170;42.206;24.142;2023-05-19T04:47:38;98933.72;;;17.26;70.95
12215;BME280;6170;42.206;24.142;2023-05-19T04:50:06;98943.31;;;17.45;69.92
12215;BME280;6170;42.206;24.142;2023-05-19T04:52:34;98974.09;;;17.68;71.08
12215;BME280;6170;42.206;24.142;2023-05-19T04:55:04;98944.25;;;17.96;68.80
12215;BME280;6170;42.206;24.142;2023-05-19T04:57:31;98966.09;;;18.06;69.05
12215;BME280;6170;42.206;24.142;2023-05-19T04:59:57;98970.03;;;18.15;68.95
12215;BME280;6170;42.206;24.142;2023-05-19T05:02:25;98949.41;;;18.31;68.65
12215;BME280;6170;42.206;24.142;2023-05-19T05:04:53;98936.25;;;18.39;69.07
12215;BME280;6170;42.206;24.142;2023-05-19T05:07:21;98939.47;;;18.36;69.35
12215;BME280;6170;42.206;24.142;2023-05-19T05:09:48;98934.75;;;18.65;67.46
12215;BME280;6170;42.206;24.142;2023-05-19T05:12:17;98940.31;;;18.97;66.29
12215;BME280;6170;42.206;24.142;2023-05-19T05:14:44;98940.56;;;18.74;66.44
12215;BME280;6170;42.206;24.142;2023-05-19T05:17:12;98982.81;;;19.08;66.73
12215;BME280;6170;42.206;24.142;2023-05-19T05:19:39;98951.28;;;18.85;66.59
12215;BME280;6170;42.206;24.142;2023-05-19T05:22:07;98951.50;;;19.01;67.62
12215;BME280;6170;42.206;24.142;2023-05-19T05:24:34;98961.13;;;19.35;66.24
12215;BME280;6170;42.206;24.142;2023-05-19T05:27:01;98950.91;;;19.42;66.56
12215;BME280;6170;42.206;24.142;2023-05-19T05:29:30;98965.84;;;19.93;65.47
12215;BME280;6170;42.206;24.142;2023-05-19T05:31:57;98937.13;;;19.76;63.93
12215;BME280;6170;42.206;24.142;2023-05-19T05:34:24;98955.78;;;19.94;63.82
12215;BME280;6170;42.206;24.142;2023-05-19T05:36:51;98940.34;;;19.99;64.37
12215;BME280;6170;42.206;24.142;2023-05-19T05:39:18;98947.97;;;20.71;63.50
12215;BME280;6170;42.206;24.142;2023-05-19T05:41:44;98958.34;;;20.79;63.34
12215;BME280;6170;42.206;24.142;2023-05-19T05:44:11;98958.09;;;20.39;64.09
12215;BME280;6170;42.206;24.142;2023-05-19T05:46:40;98956.41;;;20.75;64.13
12215;BME280;6170;42.206;24.142;2023-05-19T05:49:08;98960.44;;;20.67;62.37
12215;BME280;6170;42.206;24.142;2023-05-19T05:51:37;98964.59;;;20.38;62.71
12215;BME280;6170;42.206;24.142;2023-05-19T05:54:05;98963.94;;;20.62;62.63
12215;BME280;6170;42.206;24.142;2023-05-19T05:56:33;98966.00;;;20.87;63.21
12215;BME280;6170;42.206;24.142;2023-05-19T05:59:01;98970.41;;;21.50;62.34
12215;BME280;6170;42.206;24.142;2023-05-19T06:01:28;98978.06;;;21.64;61.42
12215;BME280;6170;42.206;24.142;2023-05-19T06:03:57;98979.97;;;21.63;60.99
12215;BME280;6170;42.206;24.142;2023-05-19T06:06:24;98977.34;;;21.99;60.35
12215;BME280;6170;42.206;24.142;2023-05-19T06:08:51;98981.94;;;22.59;59.74
12215;BME280;6170;42.206;24.142;2023-05-19T06:11:18;98979.78;;;22.20;60.58
12215;BME280;6170;42.206;24.142;2023-05-19T06:13:45;98977.88;;;22.36;60.93
12215;BME280;6170;42.206;24.142;2023-05-19T06:16:12;98976.50;;;22.28;60.45
12215;BME280;6170;42.206;24.142;2023-05-19T06:18:39;98992.06;;;22.33;61.07
12215;BME280;6170;42.206;24.142;2023-05-19T06:21:07;98982.78;;;22.74;59.53
12215;BME280;6170;42.206;24.142;2023-05-19T06:23:38;98977.84;;;22.71;56.81
12215;BME280;6170;42.206;24.142;2023-05-19T06:26:05;98976.78;;;22.47;58.51
12215;BME280;6170;42.206;24.142;2023-05-19T06:28:32;98967.47;;;22.53;59.90
12215;BME280;6170;42.206;24.142;2023-05-19T06:30:59;98984.13;;;22.87;60.18
12215;BME280;6170;42.206;24.142;2023-05-19T06:33:26;98991.47;;;22.97;58.68
12215;BME280;6170;42.206;24.142;2023-05-19T06:35:53;98992.78;;;23.09;57.97
12215;BME280;6170;42.206;24.142;2023-05-19T06:38:21;98993.78;;;23.34;57.33
12215;BME280;6170;42.206;24.142;2023-05-19T06:40:48;98998.00;;;23.01;56.64
12215;BME280;6170;42.206;24.142;2023-05-19T06:43:15;98997.19;;;23.05;58.10
12215;BME280;6170;42.206;24.142;2023-05-19T06:45:42;98970.00;;;23.29;57.41
12215;BME280;6170;42.206;24.142;2023-05-19T06:48:09;98976.41;;;23.63;55.37
12215;BME280;6170;42.206;24.142;2023-05-19T06:50:35;98994.03;;;23.37;55.54
12215;BME280;6170;42.206;24.142;2023-05-19T06:53:02;98996.16;;;22.76;55.83
12215;BME280;6170;42.206;24.142;2023-05-19T06:55:31;98996.50;;;23.44;55.86
12215;BME280;6170;42.206;24.142;2023-05-19T06:57:58;98991.97;;;24.17;54.77
12215;BME280;6170;42.206;24.142;2023-05-19T07:00:25;98997.09;;;23.90;55.28
12215;BME280;6170;42.206;24.142;2023-05-19T07:02:52;98993.69;;;24.71;53.39
12215;BME280;6170;42.206;24.142;2023-05-19T07:05:19;98989.94;;;24.61;53.79
12215;BME280;6170;42.206;24.142;2023-05-19T07:07:46;98996.44;;;24.03;55.10
12215;BME280;6170;42.206;24.142;2023-05-19T07:10:13;98989.38;;;24.65;54.82
12215;BME280;6170;42.206;24.142;2023-05-19T07:12:41;98981.75;;;24.56;54.44
12215;BME280;6170;42.206;24.142;2023-05-19T07:15:09;98972.47;;;24.24;53.64
12215;BME280;6170;42.206;24.142;2023-05-19T07:17:36;98991.97;;;24.51;54.25
12215;BME280;6170;42.206;24.142;2023-05-19T07:20:03;98984.81;;;25.08;53.83
12215;BME280;6170;42.206;24.142;2023-05-19T07:22:31;98997.72;;;25.49;53.14
12215;BME280;6170;42.206;24.142;2023-05-19T07:24:59;99001.78;;;24.52;55.68
12215;BME280;6170;42.206;24.142;2023-05-19T07:27:26;99025.47;;;25.00;54.83
12215;BME280;6170;42.206;24.142;2023-05-19T07:29:54;98992.50;;;25.53;54.72
12215;BME280;6170;42.206;24.142;2023-05-19T07:32:21;98988.75;;;25.68;53.15
12215;BME280;6170;42.206;24.142;2023-05-19T07:34:48;98992.44;;;26.14;52.94
12215;BME280;6170;42.206;24.142;2023-05-19T07:37:15;98992.56;;;25.24;51.15
12215;BME280;6170;42.206;24.142;2023-05-19T07:39:42;99027.88;;;25.55;52.43
12215;BME280;6170;42.206;24.142;2023-05-19T07:42:09;98996.53;;;25.61;52.93
12215;BME280;6170;42.206;24.142;2023-05-19T07:44:36;98994.16;;;25.30;54.73
12215;BME280;6170;42.206;24.142;2023-05-19T07:47:04;98980.66;;;25.95;50.01
12215;BME280;6170;42.206;24.142;2023-05-19T07:49:31;98997.88;;;25.16;52.64
12215;BME280;6170;42.206;24.142;2023-05-19T07:51:58;99000.91;;;24.61;53.80
12215;BME280;6170;42.206;24.142;2023-05-19T07:54:25;98999.22;;;24.37;53.98
12215;BME280;6170;42.206;24.142;2023-05-19T07:56:52;99005.59;;;25.14;53.23
12215;BME280;6170;42.206;24.142;2023-05-19T07:59:19;99003.13;;;25.36;53.99
12215;BME280;6170;42.206;24.142;2023-05-19T08:01:46;99005.00;;;25.64;53.23
12215;BME280;6170;42.206;24.142;2023-05-19T08:04:14;98988.75;;;26.05;51.04
12215;BME280;6170;42.206;24.142;2023-05-19T08:06:41;98994.47;;;25.90;50.84
12215;BME280;6170;42.206;24.142;2023-05-19T08:09:08;98984.06;;;25.68;50.17
12215;BME280;6170;42.206;24.142;2023-05-19T08:11:36;98988.75;;;25.86;51.49
12215;BME280;6170;42.206;24.142;2023-05-19T08:14:03;98992.19;;;25.97;52.27
12215;BME280;6170;42.206;24.142;2023-05-19T08:16:30;98988.81;;;26.19;50.36
12215;BME280;6170;42.206;24.142;2023-05-19T08:18:57;99020.22;;;26.31;52.54
12215;BME280;6170;42.206;24.142;2023-05-19T08:21:28;98987.72;;;26.52;49.38
12215;BME280;6170;42.206;24.142;2023-05-19T08:23:55;99030.00;;;26.70;51.37
12215;BME280;6170;42.206;24.142;2023-05-19T08:26:22;98998.63;;;26.57;48.31
12215;BME280;6170;42.206;24.142;2023-05-19T08:28:49;98997.53;;;25.88;51.26
12215;BME280;6170;42.206;24.142;2023-05-19T08:31:16;98997.84;;;25.63;50.15
12215;BME280;6170;42.206;24.142;2023-05-19T08:33:43;98993.72;;;25.66;51.44
12215;BME280;6170;42.206;24.142;2023-05-19T08:36:11;98989.84;;;26.42;50.42
12215;BME280;6170;42.206;24.142;2023-05-19T08:38:39;98992.00;;;26.91;50.43
12215;BME280;6170;42.206;24.142;2023-05-19T08:41:06;99008.94;;;27.11;48.11
12215;BME280;6170;42.206;24.142;2023-05-19T08:43:32;98985.28;;;27.38;48.55
12215;BME280;6170;42.206;24.142;2023-05-19T08:45:59;98989.41;;;26.80;47.76
12215;BME280;6170;42.206;24.142;2023-05-19T08:48:28;98983.06;;;27.12;49.22
12215;BME280;6170;42.206;24.142;2023-05-19T08:51:03;98981.13;;;27.13;46.97
12215;BME280;6170;42.206;24.142;2023-05-19T08:53:36;98967.88;;;27.15;49.30
12215;BME280;6170;42.206;24.142;2023-05-19T08:56:10;98980.78;;;27.01;47.37
12215;BME280;6170;42.206;24.142;2023-05-19T08:58:38;98981.22;;;27.08;48.58
12215;BME280;6170;42.206;24.142;2023-05-19T09:01:06;98976.41;;;27.27;48.67
12215;BME280;6170;42.206;24.142;2023-05-19T09:03:33;98977.66;;;27.07;50.34
12215;BME280;6170;42.206;24.142;2023-05-19T09:06:04;99006.91;;;27.17;48.21
12215;BME280;6170;42.206;24.142;2023-05-19T09:08:32;98965.22;;;27.10;47.99
12215;BME280;6170;42.206;24.142;2023-05-19T09:10:59;98975.38;;;26.96;46.82
12215;BME280;6170;42.206;24.142;2023-05-19T09:13:28;98976.31;;;27.18;45.52
12215;BME280;6170;42.206;24.142;2023-05-19T09:15:56;99006.06;;;27.71;47.95
12215;BME280;6170;42.206;24.142;2023-05-19T09:18:24;98969.69;;;27.06;43.38
12215;BME280;6170;42.206;24.142;2023-05-19T09:20:55;99001.34;;;28.21;47.53
12215;BME280;6170;42.206;24.142;2023-05-19T09:23:25;98977.09;;;28.09;44.54
12215;BME280;6170;42.206;24.142;2023-05-19T09:25:53;98964.75;;;27.71;46.09
12215;BME280;6170;42.206;24.142;2023-05-19T09:28:24;98956.84;;;27.56;46.83
12215;BME280;6170;42.206;24.142;2023-05-19T09:31:00;98958.19;;;27.17;44.64
12215;BME280;6170;42.206;24.142;2023-05-19T09:33:27;98969.41;;;27.07;42.40
12215;BME280;6170;42.206;24.142;2023-05-19T09:35:54;98952.97;;;27.43;48.35
12215;BME280;6170;42.206;24.142;2023-05-19T09:38:23;98946.34;;;26.11;46.93
12215;BME280;6170;42.206;24.142;2023-05-19T09:40:51;98953.63;;;26.86;44.18
12215;BME280;6170;42.206;24.142;2023-05-19T09:43:18;98971.78;;;28.13;44.50
12215;BME280;6170;42.206;24.142;2023-05-19T09:45:44;98958.34;;;27.62;41.90
12215;BME280;6170;42.206;24.142;2023-05-19T09:48:14;98959.81;;;26.91;44.21
12215;BME280;6170;42.206;24.142;2023-05-19T09:50:42;98959.31;;;25.92;43.43
12215;BME280;6170;42.206;24.142;2023-05-19T09:53:12;98951.88;;;25.92;44.91
12215;BME280;6170;42.206;24.142;2023-05-19T09:55:39;98955.81;;;26.24;45.18
12215;BME280;6170;42.206;24.142;2023-05-19T09:58:07;98998.94;;;26.23;48.91
12215;BME280;6170;42.206;24.142;2023-05-19T10:00:34;98996.84;;;26.15;47.87
12215;BME280;6170;42.206;24.142;2023-05-19T10:03:03;98999.94;;;26.46;51.80
12215;BME280;6170;42.206;24.142;2023-05-19T10:05:32;98979.97;;;26.03;50.10
12215;BME280;6170;42.206;24.142;2023-05-19T10:08:00;98999.13;;;25.89;47.28
12215;BME280;6170;42.206;24.142;2023-05-19T10:10:32;98965.19;;;24.72;46.67
12215;BME280;6170;42.206;24.142;2023-05-19T10:13:00;98956.84;;;24.87;47.29
12215;BME280;6170;42.206;24.142;2023-05-19T10:15:28;98989.44;;;24.83;49.62
12215;BME280;6170;42.206;24.142;2023-05-19T10:17:55;98958.69;;;24.63;45.65
12215;BME280;6170;42.206;24.142;2023-05-19T10:20:25;98966.81;;;24.73;45.32
12215;BME280;6170;42.206;24.142;2023-05-19T10:22:54;98955.19;;;24.57;48.58
12215;BME280;6170;42.206;24.142;2023-05-19T10:25:21;98949.75;;;24.81;49.97
12215;BME280;6170;42.206;24.142;2023-05-19T10:27:53;98978.19;;;24.85;48.19
12215;BME280;6170;42.206;24.142;2023-05-19T10:30:25;98977.72;;;24.15;45.49
12215;BME280;6170;42.206;24.142;2023-05-19T10:32:52;99003.00;;;24.70;47.88
12215;BME280;6170;42.206;24.142;2023-05-19T10:38:32;98972.44;;;24.29;53.54
12215;BME280;6170;42.206;24.142;2023-05-19T10:41:06;98974.16;;;23.21;54.15
12215;BME280;6170;42.206;24.142;2023-05-19T10:43:46;98975.16;;;23.41;58.73
12215;BME280;6170;42.206;24.142;2023-05-19T10:46:14;98976.09;;;23.16;56.68
12215;BME280;6170;42.206;24.142;2023-05-19T10:48:43;98996.66;;;23.67;58.67
12215;BME280;6170;42.206;24.142;2023-05-19T10:51:11;98988.56;;;23.37;55.81
12215;BME280;6170;42.206;24.142;2023-05-19T10:53:42;98974.03;;;23.42;57.53
12215;BME280;6170;42.206;24.142;2023-05-19T10:56:26;98975.63;;;23.63;55.49
12215;BME280;6170;42.206;24.142;2023-05-19T10:58:54;98972.78;;;23.78;55.98
12215;BME280;6170;42.206;24.142;2023-05-19T11:01:21;98980.50;;;24.10;56.85
12215;BME280;6170;42.206;24.142;2023-05-19T11:03:49;98984.72;;;23.38;55.14
12215;BME280;6170;42.206;24.142;2023-05-19T11:06:24;98972.16;;;23.91;57.80
12215;BME280;6170;42.206;24.142;2023-05-19T11:08:55;98972.97;;;24.88;55.17
12215;BME280;6170;42.206;24.142;2023-05-19T11:11:22;98956.38;;;25.03;53.93
12215;BME280;6170;42.206;24.142;2023-05-19T11:13:51;98961.59;;;25.24;55.33
12215;BME280;6170;42.206;24.142;2023-05-19T11:16:25;98967.72;;;26.79;50.84
12215;BME280;6170;42.206;24.142;2023-05-19T11:18:53;98964.16;;;26.78;50.77
12215;BME280;6170;42.206;24.142;2023-05-19T11:21:20;98958.59;;;27.88;48.18
12215;BME280;6170;42.206;24.142;2023-05-19T11:23:47;98937.41;;;27.25;47.73
12215;BME280;6170;42.206;24.142;2023-05-19T11:26:15;98951.56;;;27.32;47.07
12215;BME280;6170;42.206;24.142;2023-05-19T11:29:03;98951.25;;;27.06;45.94
12215;BME280;6170;42.206;24.142;2023-05-19T11:31:31;98951.97;;;26.38;46.59
12215;BME280;6170;42.206;24.142;2023-05-19T11:34:00;98947.03;;;26.54;48.34
12215;BME280;6170;42.206;24.142;2023-05-19T11:36:29;98947.44;;;25.78;49.27
12215;BME280;6170;42.206;24.142;2023-05-19T11:38:57;98946.34;;;25.36;49.46
12215;BME280;6170;42.206;24.142;2023-05-19T11:41:26;98913.59;;;25.82;51.12
12215;BME280;6170;42.206;24.142;2023-05-19T11:43:55;98940.56;;;26.31;48.17
12215;BME280;6170;42.206;24.142;2023-05-19T11:46:22;98932.97;;;26.42;48.00
12215;BME280;6170;42.206;24.142;2023-05-19T11:48:49;98943.59;;;26.11;46.42
12215;BME280;6170;42.206;24.142;2023-05-19T11:51:16;98932.31;;;25.62;49.40
12215;BME280;6170;42.206;24.142;2023-05-19T11:53:43;98934.59;;;25.92;48.18
12215;BME280;6170;42.206;24.142;2023-05-19T11:56:10;98923.63;;;25.73;48.25
12215;BME280;6170;42.206;24.142;2023-05-19T11:58:39;98945.91;;;26.69;49.02
12215;BME280;6170;42.206;24.142;2023-05-19T12:01:05;98942.38;;;26.68;48.23
12215;BME280;6170;42.206;24.142;2023-05-19T12:03:34;98943.50;;;27.22;46.04
12215;BME280;6170;42.206;24.142;2023-05-19T12:06:02;98942.06;;;26.83;46.73
12215;BME280;6170;42.206;24.142;2023-05-19T12:08:31;98951.38;;;27.15;45.93
12215;BME280;6170;42.206;24.142;2023-05-19T12:10:58;98962.38;;;27.01;46.51
12215;BME280;6170;42.206;24.142;2023-05-19T12:13:25;98935.66;;;27.43;47.81
12215;BME280;6170;42.206;24.142;2023-05-19T12:15:58;98925.69;;;27.19;47.51
12215;BME280;6170;42.206;24.142;2023-05-19T12:18:28;98963.47;;;27.00;46.47
12215;BME280;6170;42.206;24.142;2023-05-19T12:20:56;98955.31;;;27.22;46.08
12215;BME280;6170;42.206;24.142;2023-05-19T12:23:23;98923.97;;;27.10;45.96
12215;BME280;6170;42.206;24.142;2023-05-19T12:25:50;98945.72;;;27.61;44.98
12215;BME280;6170;42.206;24.142;2023-05-19T12:28:18;98895.16;;;27.07;44.57
12215;BME280;6170;42.206;24.142;2023-05-19T12:30:46;98921.94;;;27.02;45.30
12215;BME280;6170;42.206;24.142;2023-05-19T12:33:17;98919.97;;;26.29;46.71
12215;BME280;6170;42.206;24.142;2023-05-19T12:35:45;98908.72;;;26.12;45.04
12215;BME280;6170;42.206;24.142;2023-05-19T12:38:13;98912.25;;;26.31;45.29
12215;BME280;6170;42.206;24.142;2023-05-19T12:40:41;98911.25;;;26.27;45.86
12215;BME280;6170;42.206;24.142;2023-05-19T12:43:18;98920.59;;;25.75;47.16
12215;BME280;6170;42.206;24.142;2023-05-19T12:45:45;98907.75;;;26.03;47.59
12215;BME280;6170;42.206;24.142;2023-05-19T12:48:12;98907.94;;;26.57;46.35
12215;BME280;6170;42.206;24.142;2023-05-19T12:50:41;98911.88;;;26.51;46.82
12215;BME280;6170;42.206;24.142;2023-05-19T12:53:10;98899.97;;;26.28;47.10
12215;BME280;6170;42.206;24.142;2023-05-19T12:55:38;98894.06;;;26.49;47.86
12215;BME280;6170;42.206;24.142;2023-05-19T12:58:09;98878.00;;;26.56;46.38
12215;BME280;6170;42.206;24.142;2023-05-19T13:00:40;98872.78;;;25.76;46.78
12215;BME280;6170;42.206;24.142;2023-05-19T13:03:14;98887.81;;;25.65;48.69
12215;BME280;6170;42.206;24.142;2023-05-19T13:05:43;98877.63;;;25.09;48.13
12215;BME280;6170;42.206;24.142;2023-05-19T13:08:12;98871.31;;;25.27;49.95
12215;BME280;6170;42.206;24.142;2023-05-19T13:10:41;98885.66;;;25.62;47.85